Burbank, California
Current Conditions -  °F | °C
As of 6:53 PM on Friday 24 Oct 2014 (Local Time) from KBUR Reporting Station
Clear Clear  
Wind Chill: 79°   Ceiling: Unl
Heat Index: 79°   Visibility: 10mi
Dew Point: 45°   Wind: 3mph
Humidity: 30%   Direction: 160°SSE
Pressure: 29.94"   Gusts: NA
Location:  34.18°N, 118.3°W
Report Text: KBUR 250153Z 16003KT 10SM CLR 26/07 A2994 RMK AO2 SLP128 T02610072
Loading
Personal Weather Stations






























Interactive Weather Map
Tropical Storm Tracking
New forecast layout! Learn more

10-Day Weather Forecast

Advertisements
Track Severe Weather on mobile